createdAt,value
2019-01-04T00:00:21.599Z,7.20
2019-01-04T00:02:51.028Z,6.70
2019-01-04T00:05:20.334Z,7.00
2019-01-04T00:07:49.758Z,6.83
2019-01-04T00:10:19.057Z,7.20
2019-01-04T00:12:48.400Z,6.53
2019-01-04T00:15:17.774Z,6.63
2019-01-04T00:17:47.039Z,5.70
2019-01-04T00:20:16.339Z,6.50
2019-01-04T00:22:45.619Z,6.83
2019-01-04T00:25:14.995Z,7.00
2019-01-04T00:27:44.259Z,7.83
2019-01-04T00:30:13.689Z,7.57
2019-01-04T00:32:42.986Z,7.00
2019-01-04T00:35:12.428Z,6.87
2019-01-04T00:37:41.758Z,7.60
2019-01-04T00:40:12.055Z,7.43
2019-01-04T00:42:41.243Z,6.60
2019-01-04T00:45:10.720Z,7.10
2019-01-04T00:47:40.016Z,7.33
2019-01-04T00:50:09.615Z,6.97
2019-01-04T00:52:38.908Z,7.20
2019-01-04T00:55:43.187Z,7.60
2019-01-04T00:58:39.656Z,6.90
2019-01-04T01:01:45.935Z,7.43
2019-01-04T01:04:59.966Z,7.23
2019-01-04T01:08:12.659Z,6.97
2019-01-04T01:11:08.147Z,7.33
2019-01-04T01:14:24.164Z,7.03
2019-01-04T01:17:45.301Z,7.23
2019-01-04T01:20:39.205Z,7.33
2019-01-04T01:23:39.762Z,7.17
2019-01-04T01:26:48.811Z,7.50
2019-01-04T01:30:08.470Z,6.10
2019-01-04T01:33:01.203Z,6.80
2019-01-04T01:36:04.663Z,6.40
2019-01-04T01:39:10.608Z,6.50
2019-01-04T01:42:15.886Z,5.80
2019-01-04T01:45:23.617Z,6.50
2019-01-04T01:48:23.259Z,5.63
2019-01-04T01:51:32.883Z,5.87
2019-01-04T01:54:02.287Z,5.67
2019-01-04T01:56:31.474Z,6.53
2019-01-04T01:59:00.779Z,5.70
2019-01-04T02:01:29.999Z,5.43
2019-01-04T02:03:59.284Z,6.67
2019-01-04T02:06:28.595Z,6.27
2019-01-04T02:08:57.868Z,6.57
2019-01-04T02:11:27.066Z,5.43
2019-01-04T02:13:56.391Z,5.90
2019-01-04T02:16:25.758Z,5.77
2019-01-04T02:18:54.971Z,5.73
2019-01-04T02:21:24.900Z,5.90
2019-01-04T02:23:54.102Z,5.57
2019-01-04T02:26:24.575Z,5.80
2019-01-04T02:28:53.928Z,5.83
2019-01-04T02:31:23.174Z,5.30
2019-01-04T02:33:52.539Z,5.47
2019-01-04T02:36:21.825Z,5.80
2019-01-04T02:38:51.211Z,5.27
2019-01-04T02:41:20.391Z,5.73
2019-01-04T02:43:49.729Z,5.83
2019-01-04T02:46:19.094Z,4.43
2019-01-04T02:48:50.623Z,5.17
2019-01-04T02:51:19.833Z,4.30
2019-01-04T02:53:49.086Z,4.30
2019-01-04T02:56:18.435Z,4.20
2019-01-04T02:58:47.632Z,4.23
2019-01-04T03:01:17.001Z,4.20
2019-01-04T03:03:46.330Z,4.77
2019-01-04T03:06:15.556Z,4.90
2019-01-04T03:08:44.839Z,4.67
2019-01-04T03:11:14.219Z,4.93
2019-01-04T03:13:43.481Z,5.17
2019-01-04T03:16:12.770Z,5.43
2019-01-04T03:18:42.055Z,5.60
2019-01-04T03:21:11.327Z,4.90
2019-01-04T03:23:40.603Z,5.17
2019-01-04T03:26:09.901Z,5.37
2019-01-04T03:28:39.171Z,5.20
2019-01-04T03:31:08.368Z,5.67
2019-01-04T03:33:37.739Z,5.13
2019-01-04T03:36:07.088Z,5.73
2019-01-04T03:38:36.382Z,5.67
2019-01-04T03:41:05.659Z,4.63
2019-01-04T03:43:34.869Z,5.70
2019-01-04T03:46:04.365Z,5.30
2019-01-04T03:48:33.691Z,5.00
2019-01-04T03:51:02.891Z,5.73
2019-01-04T03:53:32.107Z,6.47
2019-01-04T03:56:01.461Z,5.47
2019-01-04T03:58:30.828Z,5.33
2019-01-04T04:01:00.123Z,5.13
2019-01-04T04:03:29.422Z,5.40
2019-01-04T04:05:58.624Z,4.87
2019-01-04T04:08:27.895Z,5.53
2019-01-04T04:10:57.455Z,5.87
2019-01-04T04:13:26.739Z,5.90
2019-01-04T04:15:56.036Z,5.07
2019-01-04T04:18:25.357Z,5.50
2019-01-04T04:20:54.650Z,5.90
2019-01-04T04:23:24.336Z,5.07
2019-01-04T04:25:53.668Z,5.67
2019-01-04T04:28:22.876Z,6.00
2019-01-04T04:30:52.175Z,5.43
2019-01-04T04:33:21.495Z,5.70
2019-01-04T04:35:50.740Z,5.40
2019-01-04T04:38:19.940Z,5.73
2019-01-04T04:40:49.241Z,5.23
2019-01-04T04:43:18.618Z,6.10
2019-01-04T04:45:47.845Z,5.57
2019-01-04T04:48:17.183Z,5.87
2019-01-04T04:50:46.449Z,5.20
2019-01-04T04:53:15.755Z,4.67
2019-01-04T04:55:45.017Z,4.80
2019-01-04T04:58:14.210Z,4.80
2019-01-04T05:00:43.659Z,5.13
2019-01-04T05:03:13.078Z,4.57
2019-01-04T05:05:42.303Z,4.60
2019-01-04T05:08:11.556Z,5.17
2019-01-04T05:10:40.968Z,5.30
2019-01-04T05:13:10.239Z,5.33
2019-01-04T05:15:39.503Z,5.73
2019-01-04T05:18:08.907Z,6.23
2019-01-04T05:20:38.119Z,5.53
2019-01-04T05:23:07.355Z,6.27
2019-01-04T05:25:36.641Z,6.53
2019-01-04T05:28:05.843Z,7.30
2019-01-04T05:30:35.087Z,7.17
2019-01-04T05:33:04.383Z,7.83
2019-01-04T05:35:33.639Z,7.13
2019-01-04T05:38:02.919Z,7.50
2019-01-04T05:40:32.311Z,7.80
2019-01-04T05:43:01.664Z,7.47
2019-01-04T05:45:30.862Z,7.47
2019-01-04T05:48:00.099Z,7.87
2019-01-04T05:50:29.467Z,7.70
2019-01-04T05:52:58.654Z,8.60
2019-01-04T05:55:27.880Z,9.87
2019-01-04T05:57:57.061Z,9.43
2019-01-04T06:00:26.404Z,8.93
2019-01-04T06:02:55.672Z,8.97
2019-01-04T06:05:24.895Z,8.80
2019-01-04T06:07:54.188Z,9.50
2019-01-04T06:10:23.451Z,9.40
2019-01-04T06:12:52.788Z,9.73
2019-01-04T06:15:22.156Z,9.33
2019-01-04T06:17:51.335Z,9.63
2019-01-04T06:20:20.548Z,9.20
2019-01-04T06:22:49.802Z,9.03
2019-01-04T06:25:19.084Z,9.50
2019-01-04T06:27:48.275Z,9.47
2019-01-04T06:30:17.508Z,9.70
2019-01-04T06:32:46.815Z,11.07
2019-01-04T06:35:16.098Z,20.03
2019-01-04T06:37:45.367Z,20.43
2019-01-04T06:40:14.603Z,18.17
2019-01-04T06:42:43.899Z,19.07
2019-01-04T06:45:13.271Z,20.03
2019-01-04T06:47:43.874Z,21.03
2019-01-04T06:50:13.055Z,16.80
2019-01-04T06:52:42.359Z,16.53
2019-01-04T06:55:59.086Z,15.50
2019-01-04T06:58:28.452Z,17.48
2019-01-04T07:00:57.668Z,18.97
2019-01-04T07:03:27.055Z,17.60
2019-01-04T07:05:56.343Z,17.97
2019-01-04T07:08:25.618Z,18.02
2019-01-04T07:10:54.943Z,17.30
2019-01-04T07:13:24.256Z,17.55
2019-01-04T07:15:53.535Z,17.83
2019-01-04T07:18:22.823Z,19.03
2019-01-04T07:20:52.038Z,22.77
2019-01-04T07:23:21.424Z,23.50
2019-01-04T07:25:50.675Z,23.47
2019-01-04T07:28:19.855Z,21.90
2019-01-04T07:30:49.146Z,24.10
2019-01-04T07:33:18.347Z,17.63
2019-01-04T07:35:47.670Z,18.90
2019-01-04T07:38:16.943Z,20.00
2019-01-04T07:40:46.290Z,17.87
2019-01-04T07:43:16.563Z,19.10
2019-01-04T07:45:46.004Z,16.50
2019-01-04T07:48:15.268Z,19.20
2019-01-04T07:50:44.471Z,18.60
2019-01-04T07:53:13.714Z,18.47
2019-01-04T07:55:42.937Z,19.13
2019-01-04T07:58:12.216Z,14.00
2019-01-04T08:00:41.435Z,16.23
2019-01-04T08:03:18.338Z,17.20
2019-01-04T08:05:47.704Z,17.37
2019-01-04T08:08:17.247Z,16.47
2019-01-04T08:10:46.603Z,17.43
2019-01-04T08:13:15.893Z,18.47
2019-01-04T08:15:45.198Z,15.07
2019-01-04T08:18:14.502Z,17.67
2019-01-04T08:20:43.722Z,18.77
2019-01-04T08:23:12.982Z,19.03
2019-01-04T08:25:42.243Z,18.50
2019-01-04T08:28:11.439Z,19.70
2019-01-04T08:30:40.726Z,19.00
2019-01-04T08:33:10.047Z,16.17
2019-01-04T08:35:39.250Z,18.97
2019-01-04T08:38:08.576Z,20.20
2019-01-04T08:40:37.797Z,18.67
2019-01-04T08:43:07.016Z,21.03
2019-01-04T08:45:36.218Z,21.93
2019-01-04T08:48:05.417Z,22.90
2019-01-04T08:50:34.787Z,26.47
2019-01-04T08:53:04.011Z,22.83
2019-01-04T08:55:33.210Z,24.40
2019-01-04T08:58:02.570Z,24.87
2019-01-04T09:00:31.839Z,22.37
2019-01-04T09:03:01.075Z,19.90
2019-01-04T09:05:30.418Z,23.23
2019-01-04T09:07:59.680Z,24.20
2019-01-04T09:10:28.885Z,21.00
2019-01-04T09:12:58.157Z,24.97
2019-01-04T09:15:27.401Z,21.70
2019-01-04T09:17:56.767Z,24.57
2019-01-04T09:20:26.090Z,25.80
2019-01-04T09:22:55.370Z,25.70
2019-01-04T09:25:24.715Z,23.57
2019-01-04T09:27:53.981Z,25.53
2019-01-04T09:30:23.287Z,25.20
2019-01-04T09:32:52.506Z,23.23
2019-01-04T09:35:21.825Z,23.37
2019-01-04T09:37:51.087Z,20.50
2019-01-04T09:40:20.283Z,19.17
2019-01-04T09:42:49.594Z,19.37
2019-01-04T09:45:18.834Z,32.43
2019-01-04T09:47:48.106Z,19.60
2019-01-04T09:50:17.413Z,17.77
2019-01-04T09:52:46.602Z,16.03
2019-01-04T09:55:15.975Z,18.13
2019-01-04T09:57:45.230Z,16.57
2019-01-04T10:00:14.774Z,17.47
2019-01-04T10:02:44.049Z,16.23
2019-01-04T10:05:13.426Z,18.20
2019-01-04T10:07:42.711Z,20.13
2019-01-04T10:10:12.759Z,21.40
2019-01-04T10:12:42.168Z,18.27
2019-01-04T10:15:13.881Z,16.23
2019-01-04T10:17:43.198Z,16.53
2019-01-04T10:20:12.654Z,17.00
2019-01-04T10:22:41.945Z,19.37
2019-01-04T10:25:11.254Z,18.27
2019-01-04T10:27:40.540Z,19.80
2019-01-04T10:30:12.023Z,19.20
2019-01-04T10:32:41.323Z,18.20
2019-01-04T10:35:10.866Z,19.50
2019-01-04T10:37:40.159Z,17.13
2019-01-04T10:40:11.124Z,16.73
2019-01-04T10:42:40.451Z,17.37
2019-01-04T10:45:09.752Z,15.07
2019-01-04T10:47:39.064Z,16.77
2019-01-04T10:50:08.295Z,18.03
2019-01-04T10:52:37.582Z,18.93
2019-01-04T10:55:07.083Z,17.67
2019-01-04T10:57:36.274Z,18.40
2019-01-04T11:00:06.667Z,17.97
2019-01-04T11:02:35.983Z,16.83
2019-01-04T11:05:05.203Z,16.37
2019-01-04T11:07:34.428Z,16.47
2019-01-04T11:10:03.907Z,14.13
2019-01-04T11:12:33.168Z,19.17
2019-01-04T11:15:02.446Z,17.30
2019-01-04T11:17:31.731Z,13.50
2019-01-04T11:20:01.058Z,19.00
2019-01-04T11:22:52.317Z,18.57
2019-01-04T11:26:03.982Z,19.00
2019-01-04T11:29:17.494Z,16.63
2019-01-04T11:32:04.018Z,18.00
2019-01-04T11:34:58.491Z,16.00
2019-01-04T11:37:36.879Z,21.90
2019-01-04T11:40:19.644Z,18.57
2019-01-04T11:43:14.200Z,21.17
2019-01-04T11:45:56.784Z,22.33
2019-01-04T11:48:47.711Z,21.63
2019-01-04T11:51:45.400Z,22.13
2019-01-04T11:54:21.562Z,23.07
2019-01-04T11:56:50.782Z,19.60
2019-01-04T11:59:20.076Z,22.03
2019-01-04T12:01:49.298Z,21.40
2019-01-04T12:04:18.559Z,18.77
2019-01-04T12:06:47.762Z,22.53
2019-01-04T12:09:16.991Z,19.97
2019-01-04T12:11:46.187Z,17.33
2019-01-04T12:14:15.431Z,20.93
2019-01-04T12:16:44.711Z,15.83
2019-01-04T12:19:14.120Z,16.70
2019-01-04T12:21:43.335Z,20.63
2019-01-04T12:24:12.587Z,16.90
2019-01-04T12:26:41.803Z,21.50
2019-01-04T12:29:11.146Z,20.00
2019-01-04T12:31:40.491Z,19.93
2019-01-04T12:34:09.807Z,17.17
2019-01-04T12:36:39.059Z,20.93
2019-01-04T12:39:09.023Z,19.23
2019-01-04T12:41:40.951Z,20.37
2019-01-04T12:44:10.180Z,18.97
2019-01-04T12:46:39.448Z,20.60
2019-01-04T12:49:08.683Z,18.93
2019-01-04T12:51:37.879Z,24.90
2019-01-04T12:54:07.114Z,30.93
2019-01-04T12:56:36.479Z,28.97
2019-01-04T12:59:05.737Z,30.07
2019-01-04T13:01:34.968Z,30.10
2019-01-04T13:04:04.366Z,31.40
2019-01-04T13:06:33.626Z,34.03
2019-01-04T13:09:02.987Z,39.60
2019-01-04T13:11:32.365Z,37.70
2019-01-04T13:14:01.683Z,32.07
2019-01-04T13:16:30.925Z,37.23
2019-01-04T13:19:00.315Z,34.33
2019-01-04T13:21:29.687Z,32.83
2019-01-04T13:23:58.937Z,36.97
2019-01-04T13:26:28.231Z,38.03
2019-01-04T13:28:57.516Z,33.63
2019-01-04T13:31:26.833Z,39.07
2019-01-04T13:33:56.107Z,39.57
2019-01-04T13:36:25.283Z,42.67
2019-01-04T13:38:54.599Z,36.77
2019-01-04T13:41:23.900Z,32.77
2019-01-04T13:43:53.148Z,37.40
2019-01-04T13:46:22.464Z,38.20
2019-01-04T13:48:51.756Z,36.90
2019-01-04T13:51:21.092Z,39.70
2019-01-04T13:53:50.446Z,43.77
2019-01-04T13:56:19.699Z,43.23
2019-01-04T13:58:49.012Z,43.70
2019-01-04T14:01:18.294Z,45.03
2019-01-04T14:03:47.482Z,47.20
2019-01-04T14:06:16.819Z,47.53
2019-01-04T14:08:46.043Z,45.23
2019-01-04T14:11:17.380Z,33.50
2019-01-04T14:13:46.702Z,34.10
2019-01-04T14:16:17.066Z,33.50
2019-01-04T14:18:46.376Z,39.23
2019-01-04T14:21:15.667Z,37.83
2019-01-04T14:23:44.971Z,46.43
2019-01-04T14:26:14.183Z,39.87
2019-01-04T14:28:43.380Z,36.73
2019-01-04T14:31:12.583Z,39.13
2019-01-04T14:33:41.774Z,30.03
2019-01-04T14:36:11.140Z,27.93
2019-01-04T14:38:40.380Z,31.53
2019-01-04T14:41:09.675Z,36.13
2019-01-04T14:43:39.024Z,33.30
2019-01-04T14:46:08.239Z,35.37
2019-01-04T14:48:37.543Z,29.07
2019-01-04T14:51:06.742Z,31.47
2019-01-04T14:53:36.054Z,28.37
2019-01-04T14:56:05.298Z,23.87
2019-01-04T14:58:34.581Z,26.67
2019-01-04T15:01:03.967Z,30.03
2019-01-04T15:03:33.203Z,26.63
2019-01-04T15:06:02.399Z,28.00
2019-01-04T15:08:31.695Z,23.63
2019-01-04T15:11:00.911Z,26.83
2019-01-04T15:13:30.174Z,26.50
2019-01-04T15:15:59.401Z,25.87
2019-01-04T15:18:28.650Z,23.47
2019-01-04T15:20:57.931Z,21.93
2019-01-04T15:23:27.131Z,22.67
2019-01-04T15:25:56.403Z,25.53
2019-01-04T15:28:25.631Z,27.33
2019-01-04T15:30:54.816Z,22.23
2019-01-04T15:33:24.064Z,23.13
2019-01-04T15:35:53.329Z,26.20
2019-01-04T15:38:22.710Z,27.33
2019-01-04T15:40:51.941Z,27.30
2019-01-04T15:43:21.123Z,27.63
2019-01-04T15:45:50.347Z,26.33
2019-01-04T15:48:19.566Z,28.80
2019-01-04T15:50:48.887Z,26.60
2019-01-04T15:53:18.194Z,25.27
2019-01-04T15:55:47.539Z,29.77
2019-01-04T15:58:16.758Z,29.00
2019-01-04T16:00:46.251Z,29.57
2019-01-04T16:03:15.563Z,30.87
2019-01-04T16:05:44.925Z,32.50
2019-01-04T16:08:14.146Z,26.30
2019-01-04T16:10:43.466Z,27.30
2019-01-04T16:13:12.692Z,28.20
2019-01-04T16:15:41.890Z,19.80
2019-01-04T16:18:11.301Z,18.57
2019-01-04T16:20:40.742Z,19.23
2019-01-04T16:23:09.967Z,19.93
2019-01-04T16:25:39.267Z,15.20
2019-01-04T16:28:08.551Z,11.93
2019-01-04T16:30:37.779Z,12.20
2019-01-04T16:33:07.295Z,13.47
2019-01-04T16:35:36.652Z,11.80
2019-01-04T16:38:05.945Z,11.70
2019-01-04T16:40:35.201Z,12.83
2019-01-04T16:43:04.499Z,12.27
2019-01-04T16:45:33.840Z,11.47
2019-01-04T16:48:03.420Z,15.33
2019-01-04T16:50:32.772Z,10.80
2019-01-04T16:53:02.014Z,12.40
2019-01-04T16:55:31.328Z,13.57
2019-01-04T16:58:00.615Z,15.97
2019-01-04T17:00:29.910Z,11.40
2019-01-04T17:02:59.268Z,11.33
2019-01-04T17:05:28.588Z,18.23
2019-01-04T17:07:57.852Z,17.47
2019-01-04T17:10:27.211Z,16.40
2019-01-04T17:12:56.465Z,12.17
2019-01-04T17:15:25.773Z,17.57
2019-01-04T17:17:55.092Z,17.43
2019-01-04T17:20:24.388Z,16.93
2019-01-04T17:22:53.681Z,20.23
2019-01-04T17:25:23.066Z,17.57
2019-01-04T17:27:52.361Z,17.67
2019-01-04T17:30:21.604Z,15.70
2019-01-04T17:32:50.847Z,21.10
2019-01-04T17:35:20.175Z,16.30
2019-01-04T17:37:49.467Z,15.67
2019-01-04T17:40:18.663Z,14.47
2019-01-04T17:42:48.020Z,16.93
2019-01-04T17:45:19.135Z,16.57
2019-01-04T17:47:48.479Z,14.53
2019-01-04T17:50:17.719Z,15.47
2019-01-04T17:52:46.920Z,18.17
2019-01-04T17:55:16.292Z,18.37
2019-01-04T17:57:45.643Z,15.97
2019-01-04T18:00:15.223Z,18.93
2019-01-04T18:02:44.428Z,13.80
2019-01-04T18:05:13.716Z,22.00
2019-01-04T18:07:43.063Z,22.77
2019-01-04T18:10:12.350Z,25.60
2019-01-04T18:12:41.643Z,24.70
2019-01-04T18:15:10.951Z,23.63
2019-01-04T18:17:40.396Z,28.03
2019-01-04T18:20:10.984Z,27.23
2019-01-04T18:22:40.341Z,26.93
2019-01-04T18:25:09.660Z,28.13
2019-01-04T18:27:38.863Z,25.57
2019-01-04T18:30:10.081Z,27.17
2019-01-04T18:32:39.332Z,28.00
2019-01-04T18:35:08.612Z,28.67
2019-01-04T18:37:37.884Z,30.97
2019-01-04T18:40:09.332Z,31.50
2019-01-04T18:42:38.820Z,31.87
2019-01-04T18:45:08.162Z,31.17
2019-01-04T18:47:40.440Z,29.63
2019-01-04T18:50:12.501Z,30.07
2019-01-04T18:52:41.728Z,30.77
2019-01-04T18:55:11.047Z,31.10
2019-01-04T18:57:40.311Z,33.77
2019-01-04T19:00:25.749Z,34.10
2019-01-04T19:02:55.020Z,36.00
2019-01-04T19:05:24.211Z,35.83
2019-01-04T19:07:53.574Z,37.00
2019-01-04T19:10:22.876Z,38.50
2019-01-04T19:12:52.152Z,38.17
2019-01-04T19:15:21.451Z,37.77
2019-01-04T19:17:50.818Z,38.50
2019-01-04T19:20:20.092Z,40.73
2019-01-04T19:22:49.466Z,40.67
2019-01-04T19:25:19.063Z,42.90
2019-01-04T19:27:48.511Z,44.63
2019-01-04T19:30:17.714Z,43.43
2019-01-04T19:32:47.063Z,41.73
2019-01-04T19:35:16.372Z,43.20
2019-01-04T19:37:45.664Z,46.60
2019-01-04T19:40:14.883Z,45.50
2019-01-04T19:42:44.216Z,45.17
2019-01-04T19:45:13.494Z,44.57
2019-01-04T19:47:42.921Z,45.67
2019-01-04T19:50:20.717Z,47.73
2019-01-04T19:52:50.080Z,47.93
2019-01-04T19:55:19.359Z,49.97
2019-01-04T19:57:48.545Z,45.90
2019-01-04T20:00:17.836Z,45.43
2019-01-04T20:02:47.372Z,47.77
2019-01-04T20:06:16.814Z,45.87
2019-01-04T20:09:40.607Z,47.17
2019-01-04T20:13:25.612Z,46.10
2019-01-04T20:16:40.343Z,49.37
2019-01-04T20:19:27.407Z,55.07
2019-01-04T20:22:18.168Z,51.57
2019-01-04T20:25:19.034Z,52.87
2019-01-04T20:28:01.399Z,50.50
2019-01-04T20:30:49.768Z,54.53
2019-01-04T20:33:37.982Z,52.50
2019-01-04T20:36:24.755Z,58.20
2019-01-04T20:39:19.625Z,54.33
2019-01-04T20:42:02.336Z,55.97
2019-01-04T20:44:48.923Z,56.03
2019-01-04T20:47:55.585Z,57.93
2019-01-04T20:50:43.827Z,54.13
2019-01-04T20:53:32.606Z,56.20
2019-01-04T20:56:34.198Z,56.07
2019-01-04T20:59:36.498Z,57.63
2019-01-04T21:02:30.720Z,54.03
2019-01-04T21:05:35.515Z,54.20
2019-01-04T21:08:32.691Z,54.00
2019-01-04T21:11:19.422Z,57.67
2019-01-04T21:14:06.370Z,50.07
2019-01-04T21:17:12.898Z,50.17
2019-01-04T21:20:03.701Z,50.20
2019-01-04T21:22:52.028Z,51.87
2019-01-04T21:25:35.570Z,45.70
2019-01-04T21:28:32.799Z,41.60
2019-01-04T21:31:24.032Z,39.77
2019-01-04T21:34:13.346Z,46.13
2019-01-04T21:37:00.047Z,34.83
2019-01-04T21:39:52.392Z,34.67
2019-01-04T21:42:58.851Z,28.07
2019-01-04T21:45:53.148Z,24.17
2019-01-04T21:48:55.791Z,24.67
2019-01-04T21:51:41.983Z,31.97
2019-01-04T21:54:30.409Z,32.43
2019-01-04T21:57:17.464Z,45.40
2019-01-04T22:00:04.099Z,40.33
2019-01-04T22:02:50.996Z,27.33
2019-01-04T22:05:35.065Z,23.10
2019-01-04T22:08:27.861Z,22.20
2019-01-04T22:11:14.955Z,25.43
2019-01-04T22:14:21.576Z,25.37
2019-01-04T22:17:08.356Z,25.17
2019-01-04T22:19:55.023Z,25.40
2019-01-04T22:22:52.055Z,23.67
2019-01-04T22:25:49.472Z,24.57
2019-01-04T22:28:36.301Z,21.67
2019-01-04T22:31:20.921Z,23.73
2019-01-04T22:34:13.425Z,21.93
2019-01-04T22:37:05.526Z,21.17
2019-01-04T22:39:52.566Z,22.20
2019-01-04T22:42:43.651Z,21.63
2019-01-04T22:45:47.120Z,23.10
2019-01-04T22:48:33.817Z,30.87
2019-01-04T22:51:40.010Z,23.87
2019-01-04T22:54:46.511Z,17.77
2019-01-04T22:57:44.020Z,18.10
2019-01-04T23:00:38.858Z,20.70
2019-01-04T23:03:26.578Z,21.50
2019-01-04T23:06:17.819Z,18.43
2019-01-04T23:09:06.166Z,19.07
2019-01-04T23:11:53.154Z,20.23
2019-01-04T23:14:40.093Z,21.87
2019-01-04T23:17:25.980Z,18.67
2019-01-04T23:20:12.640Z,20.27
2019-01-04T23:23:12.763Z,20.97
2019-01-04T23:25:59.425Z,20.60
2019-01-04T23:28:59.643Z,20.67
2019-01-04T23:32:01.078Z,20.80
2019-01-04T23:34:49.386Z,21.53
2019-01-04T23:37:43.579Z,22.23
2019-01-04T23:40:40.872Z,18.43
2019-01-04T23:43:27.519Z,18.27
2019-01-04T23:46:15.266Z,19.37
2019-01-04T23:49:03.543Z,20.43
2019-01-04T23:51:50.540Z,16.40
2019-01-04T23:54:38.504Z,17.27
2019-01-04T23:57:27.879Z,20.87
